W.w. Crum — WDB7252 — position and weather

sailwx.info

Track history (hours):
 
Tides and Currents Weather Stations Pressure Air Temp Water Temp Dewpoint Dewpoint Depression Visibility Wind Speed Wind Dir Waves Ship Positions

W.w. Crum

Owner: Magnolia Marine Transport Co, Vicksburg, MS. More information available from US FCC via Universal Licensing System and Coast Guard Vessel Documentation Center.

Last reported at 2014-Nov-02 06:30 UTC. Time now 2014-Nov-23 13:28 UTC.
Position N 29°55' W 091°28'.
Warning: this ship's position is 21 days out of date.

Length 40 m; draft 3 m.

Type: Towing. MMSI: 366939330.

Date/timePositionNaut miles runAvg speedWind from/ knotsBaromVisibWave heightAir tempDewpointWater temp
2014-Nov-02 06:30N 29°55' W 091°28'4 4.3
2014-Nov-02 05:33N 29°51' W 091°25'5 4.7
2014-Nov-02 04:33N 29°48' W 091°22'4 4.5
2014-Nov-02 03:33N 29°46' W 091°17'4 3.9
2014-Nov-02 02:34N 29°44' W 091°13'5 4.6
2014-Nov-02 01:34N 29°39' W 091°15'4 4.2
2014-Nov-02 00:34N 29°38' W 091°20'  
2014-Oct-26 14:33N 29°57' W 092°43'11 4.9
2014-Oct-26 12:17N 29°54' W 092°30'7 1.8
2014-Oct-26 08:24N 29°52' W 092°23'11 2.3
2014-Oct-26 03:32N 29°47' W 092°12'3 2.1
2014-Oct-26 02:07N 29°47' W 092°08'37 4.8
2014-Oct-25 18:32N 29°40' W 091°27'6 5.9
2014-Oct-25 17:33N 29°38' W 091°21'6 5.9
2014-Oct-25 16:34N 29°40' W 091°14'4 3.8
2014-Oct-25 15:34N 29°43' W 091°12'3 3.2
2014-Oct-25 14:34N 29°47' W 091°11'5 4.7
2014-Oct-25 13:33N 29°51' W 091°12'5 5.0
2014-Oct-25 12:27N 29°56' W 091°15'2 2.5
2014-Oct-25 11:34N 29°58' W 091°16'0 0.0
2014-Oct-25 10:29N 29°58' W 091°16'1 0.7
2014-Oct-25 09:33N 29°59' W 091°16'5 3.7
2014-Oct-25 08:06N 30°04' W 091°17'2 3.6
2014-Oct-25 07:26N 30°06' W 091°19'2 2.3
2014-Oct-25 06:33N 30°08' W 091°19'1 0.9
2014-Oct-25 05:26N 30°09' W 091°20'0 0.2
2014-Oct-25 04:28N 30°09' W 091°20'7 0.4
2014-Oct-24 12:30N 30°16' W 091°19'0 0.0
2014-Oct-24 02:33N 30°16' W 091°19'  
Track history (hours):
 
Tides and Currents Weather Stations Pressure Air Temp Water Temp Dewpoint Dewpoint Depression Visibility Wind Speed Wind Dir Waves Ship Positions

W.w. Crum

Owner: Magnolia Marine Transport Co, Vicksburg, MS. More information available from US FCC via Universal Licensing System and Coast Guard Vessel Documentation Center.

Last reported at 2014-Nov-02 06:30 UTC. Time now 2014-Nov-23 13:28 UTC.
Position N 29°55' W 091°28'.
Warning: this ship's position is 21 days out of date.

Length 40 m; draft 3 m.

Type: Towing. MMSI: 366939330.

Date/timePositionNaut miles runAvg speedWind from/ knotsBaromVisibWave heightAir tempDewpointWater temp
2014-Nov-02 06:30N 29°55' W 091°28'4 4.3
2014-Nov-02 05:33N 29°51' W 091°25'5 4.7
2014-Nov-02 04:33N 29°48' W 091°22'4 4.5
2014-Nov-02 03:33N 29°46' W 091°17'4 3.9
2014-Nov-02 02:34N 29°44' W 091°13'5 4.6
2014-Nov-02 01:34N 29°39' W 091°15'4 4.2
2014-Nov-02 00:34N 29°38' W 091°20'  
2014-Oct-26 14:33N 29°57' W 092°43'11 4.9
2014-Oct-26 12:17N 29°54' W 092°30'7 1.8
2014-Oct-26 08:24N 29°52' W 092°23'11 2.3
2014-Oct-26 03:32N 29°47' W 092°12'3 2.1
2014-Oct-26 02:07N 29°47' W 092°08'37 4.8
2014-Oct-25 18:32N 29°40' W 091°27'6 5.9
2014-Oct-25 17:33N 29°38' W 091°21'6 5.9
2014-Oct-25 16:34N 29°40' W 091°14'4 3.8
2014-Oct-25 15:34N 29°43' W 091°12'3 3.2
2014-Oct-25 14:34N 29°47' W 091°11'5 4.7
2014-Oct-25 13:33N 29°51' W 091°12'5 5.0
2014-Oct-25 12:27N 29°56' W 091°15'2 2.5
2014-Oct-25 11:34N 29°58' W 091°16'0 0.0
2014-Oct-25 10:29N 29°58' W 091°16'1 0.7
2014-Oct-25 09:33N 29°59' W 091°16'5 3.7
2014-Oct-25 08:06N 30°04' W 091°17'2 3.6
2014-Oct-25 07:26N 30°06' W 091°19'2 2.3
2014-Oct-25 06:33N 30°08' W 091°19'1 0.9
2014-Oct-25 05:26N 30°09' W 091°20'0 0.2
2014-Oct-25 04:28N 30°09' W 091°20'7 0.4
2014-Oct-24 12:30N 30°16' W 091°19'0 0.0
2014-Oct-24 02:33N 30°16' W 091°19'  

Dump ship's entire track history